createdAt,value
2019-03-18T00:00:13.956Z,22.50
2019-03-18T00:02:42.483Z,23.10
2019-03-18T00:05:11.099Z,23.60
2019-03-18T00:07:39.675Z,23.80
2019-03-18T00:10:08.522Z,23.60
2019-03-18T00:12:37.155Z,24.60
2019-03-18T00:15:07.850Z,24.10
2019-03-18T00:17:36.343Z,23.90
2019-03-18T00:20:06.715Z,24.00
2019-03-18T00:22:35.417Z,24.30
2019-03-18T00:25:05.593Z,24.70
2019-03-18T00:27:34.091Z,24.30
2019-03-18T00:30:02.615Z,24.60
2019-03-18T00:32:31.115Z,24.40
2019-03-18T00:34:59.704Z,24.10
2019-03-18T00:37:28.300Z,23.80
2019-03-18T00:39:56.853Z,23.50
2019-03-18T00:42:25.348Z,22.70
2019-03-18T00:44:53.942Z,23.80
2019-03-18T00:47:22.431Z,23.40
2019-03-18T00:49:50.932Z,23.00
2019-03-18T00:52:19.393Z,22.30
2019-03-18T00:54:47.801Z,22.40
2019-03-18T00:57:16.223Z,22.90
2019-03-18T00:59:44.792Z,23.60
2019-03-18T01:02:13.295Z,23.90
2019-03-18T01:04:41.877Z,23.60
2019-03-18T01:07:10.480Z,23.60
2019-03-18T01:09:38.961Z,22.90
2019-03-18T01:12:07.445Z,23.60
2019-03-18T01:14:35.981Z,23.90
2019-03-18T01:17:04.395Z,23.60
2019-03-18T01:19:32.873Z,21.80
2019-03-18T01:22:01.400Z,21.00
2019-03-18T01:24:29.885Z,20.70
2019-03-18T01:26:58.377Z,20.50
2019-03-18T01:29:26.903Z,21.20
2019-03-18T01:31:55.462Z,21.50
2019-03-18T01:34:24.093Z,22.50
2019-03-18T01:36:52.616Z,23.00
2019-03-18T01:39:21.105Z,23.10
2019-03-18T01:41:49.656Z,22.70
2019-03-18T01:44:18.064Z,22.20
2019-03-18T01:46:46.567Z,22.00
2019-03-18T01:49:15.122Z,22.50
2019-03-18T01:51:43.601Z,23.30
2019-03-18T01:54:12.082Z,22.80
2019-03-18T01:56:40.495Z,22.30
2019-03-18T01:59:09.022Z,21.30
2019-03-18T02:01:37.539Z,20.80
2019-03-18T02:04:06.013Z,21.10
2019-03-18T02:06:34.482Z,20.70
2019-03-18T02:09:03.820Z,20.20
2019-03-18T02:11:32.443Z,19.90
2019-03-18T02:14:01.054Z,20.50
2019-03-18T02:16:29.526Z,19.60
2019-03-18T02:18:58.019Z,20.70
2019-03-18T02:21:26.545Z,20.10
2019-03-18T02:23:55.037Z,20.00
2019-03-18T02:26:23.519Z,21.20
2019-03-18T02:28:52.056Z,21.00
2019-03-18T02:31:20.479Z,21.00
2019-03-18T02:33:49.239Z,20.80
2019-03-18T02:36:17.824Z,21.00
2019-03-18T02:38:46.379Z,20.40
2019-03-18T02:41:14.896Z,21.10
2019-03-18T02:43:43.369Z,21.10
2019-03-18T02:46:11.871Z,20.50
2019-03-18T02:48:40.433Z,20.00
2019-03-18T02:51:09.100Z,19.70
2019-03-18T02:53:37.654Z,19.20
2019-03-18T02:56:06.154Z,19.40
2019-03-18T02:58:34.689Z,20.80
2019-03-18T03:01:03.318Z,20.10
2019-03-18T03:03:31.810Z,20.30
2019-03-18T03:06:00.434Z,19.90
2019-03-18T03:08:29.722Z,20.10
2019-03-18T03:10:58.214Z,20.50
2019-03-18T03:13:26.887Z,20.30
2019-03-18T03:15:55.292Z,20.00
2019-03-18T03:18:23.778Z,19.60
2019-03-18T03:20:52.311Z,20.30
2019-03-18T03:23:20.937Z,19.70
2019-03-18T03:25:49.489Z,19.70
2019-03-18T03:28:18.016Z,19.80
2019-03-18T03:30:46.581Z,20.00
2019-03-18T03:33:15.064Z,20.50
2019-03-18T03:35:43.667Z,21.30
2019-03-18T03:38:12.153Z,20.10
2019-03-18T03:40:40.774Z,19.20
2019-03-18T03:43:09.299Z,19.50
2019-03-18T03:45:37.786Z,20.20
2019-03-18T03:48:06.301Z,20.10
2019-03-18T03:50:34.819Z,20.10
2019-03-18T03:53:03.303Z,20.00
2019-03-18T03:55:31.778Z,19.80
2019-03-18T03:58:00.312Z,19.90
2019-03-18T04:00:28.895Z,20.40
2019-03-18T04:02:57.532Z,21.20
2019-03-18T04:05:26.076Z,21.30
2019-03-18T04:07:54.627Z,20.80
2019-03-18T04:10:24.139Z,20.60
2019-03-18T04:12:52.657Z,20.20
2019-03-18T04:15:21.143Z,20.40
2019-03-18T04:17:49.620Z,19.80
2019-03-18T04:20:18.203Z,19.70
2019-03-18T04:22:46.758Z,19.30
2019-03-18T04:25:15.311Z,19.00
2019-03-18T04:27:43.857Z,19.30
2019-03-18T04:30:13.827Z,19.40
2019-03-18T04:32:42.330Z,19.20
2019-03-18T04:35:10.913Z,19.60
2019-03-18T04:37:39.335Z,19.50
2019-03-18T04:40:09.188Z,19.00
2019-03-18T04:42:37.729Z,19.20
2019-03-18T04:45:07.359Z,20.30
2019-03-18T04:47:35.911Z,20.10
2019-03-18T04:50:06.017Z,20.20
2019-03-18T04:52:34.509Z,20.10
2019-03-18T04:55:02.997Z,19.80
2019-03-18T04:57:31.519Z,19.80
2019-03-18T05:00:00.009Z,19.80
2019-03-18T05:02:28.570Z,19.90
2019-03-18T05:04:57.098Z,20.00
2019-03-18T05:07:25.595Z,20.70
2019-03-18T05:09:54.144Z,20.80
2019-03-18T05:12:23.653Z,20.30
2019-03-18T05:14:52.148Z,20.20
2019-03-18T05:17:26.598Z,19.90
2019-03-18T05:19:50.890Z,19.90
2019-03-18T05:22:19.377Z,19.70
2019-03-18T05:24:47.879Z,19.60
2019-03-18T05:27:16.475Z,20.40
2019-03-18T05:29:44.968Z,20.00
2019-03-18T05:32:13.462Z,20.00
2019-03-18T05:34:41.996Z,19.80
2019-03-18T05:37:10.539Z,19.80
2019-03-18T05:39:39.107Z,19.80
2019-03-18T05:42:07.691Z,19.80
2019-03-18T05:44:36.386Z,20.00
2019-03-18T05:47:04.969Z,20.50
2019-03-18T05:49:33.629Z,20.30
2019-03-18T05:52:02.117Z,20.40
2019-03-18T05:54:30.584Z,20.30
2019-03-18T05:56:59.134Z,20.50
2019-03-18T05:59:27.612Z,20.00
2019-03-18T06:01:56.030Z,20.20
2019-03-18T06:04:24.545Z,20.20
2019-03-18T06:06:52.952Z,20.40
2019-03-18T06:09:21.494Z,20.80
2019-03-18T06:11:50.014Z,20.60
2019-03-18T06:14:19.337Z,20.60
2019-03-18T06:16:47.825Z,20.60
2019-03-18T06:19:16.343Z,20.60
2019-03-18T06:21:44.836Z,20.20
2019-03-18T06:24:13.243Z,20.80
2019-03-18T06:26:41.818Z,20.20
2019-03-18T06:29:10.374Z,19.60
2019-03-18T06:31:38.920Z,19.60
2019-03-18T06:34:07.514Z,19.70
2019-03-18T06:36:36.072Z,20.50
2019-03-18T06:39:06.103Z,20.30
2019-03-18T06:41:34.617Z,19.90
2019-03-18T06:44:03.102Z,19.40
2019-03-18T06:46:31.652Z,19.30
2019-03-18T06:49:00.327Z,19.10
2019-03-18T06:51:28.940Z,18.80
2019-03-18T06:53:57.371Z,18.20
2019-03-18T06:56:25.838Z,18.10
2019-03-18T06:58:54.386Z,18.30
2019-03-18T07:01:22.876Z,17.70
2019-03-18T07:03:51.548Z,18.50
2019-03-18T07:06:20.023Z,18.00
2019-03-18T07:08:48.577Z,18.10
2019-03-18T07:11:18.207Z,18.20
2019-03-18T07:13:46.691Z,17.90
2019-03-18T07:16:16.084Z,17.90
2019-03-18T07:18:44.606Z,18.00
2019-03-18T07:21:14.740Z,18.60
2019-03-18T07:23:43.305Z,18.60
2019-03-18T07:26:11.891Z,18.50
2019-03-18T07:28:40.451Z,18.60
2019-03-18T07:31:09.017Z,18.70
2019-03-18T07:33:37.534Z,18.70
2019-03-18T07:36:05.953Z,18.20
2019-03-18T07:38:34.450Z,18.40
2019-03-18T07:41:03.049Z,19.10
2019-03-18T07:43:31.528Z,18.90
2019-03-18T07:45:59.939Z,19.00
2019-03-18T07:48:31.179Z,19.00
2019-03-18T07:50:58.753Z,17.90
2019-03-18T07:53:27.246Z,17.50
2019-03-18T07:55:55.761Z,17.10
2019-03-18T07:58:24.317Z,17.20
2019-03-18T08:00:52.926Z,17.40
2019-03-18T08:03:21.607Z,17.20
2019-03-18T08:05:50.159Z,17.00
2019-03-18T08:08:20.341Z,17.40
2019-03-18T08:10:48.985Z,18.10
2019-03-18T08:13:17.535Z,18.30
2019-03-18T08:15:46.326Z,18.60
2019-03-18T08:18:15.733Z,18.60
2019-03-18T08:20:44.284Z,18.60
2019-03-18T08:23:12.768Z,18.40
2019-03-18T08:25:41.990Z,18.10
2019-03-18T08:28:10.546Z,18.00
2019-03-18T08:30:39.191Z,18.10
2019-03-18T08:33:07.805Z,17.80
2019-03-18T08:35:36.427Z,18.00
2019-03-18T08:38:04.907Z,17.80
2019-03-18T08:40:33.557Z,17.90
2019-03-18T08:43:02.405Z,17.90
2019-03-18T08:45:30.949Z,17.00
2019-03-18T08:47:59.490Z,16.40
2019-03-18T08:50:27.992Z,16.60
2019-03-18T08:52:56.477Z,16.80
2019-03-18T08:55:25.082Z,17.30
2019-03-18T08:57:53.570Z,18.50
2019-03-18T09:00:22.293Z,18.80
2019-03-18T09:02:50.821Z,19.60
2019-03-18T09:05:19.458Z,19.80
2019-03-18T09:07:47.947Z,20.00
2019-03-18T09:10:17.677Z,19.80
2019-03-18T09:12:46.235Z,18.90
2019-03-18T09:15:14.846Z,18.60
2019-03-18T09:17:43.340Z,18.50
2019-03-18T09:20:17.387Z,18.60
2019-03-18T09:22:46.348Z,18.60
2019-03-18T09:25:14.904Z,18.80
2019-03-18T09:27:43.370Z,19.10
2019-03-18T09:30:18.193Z,18.90
2019-03-18T09:32:46.657Z,19.20
2019-03-18T09:35:15.358Z,19.70
2019-03-18T09:37:43.891Z,19.00
2019-03-18T09:40:14.842Z,18.30
2019-03-18T09:42:44.066Z,17.70
2019-03-18T09:45:19.113Z,18.10
2019-03-18T09:47:47.599Z,18.40
2019-03-18T09:50:16.164Z,18.00
2019-03-18T09:52:44.715Z,17.80
2019-03-18T09:55:13.280Z,18.60
2019-03-18T09:57:41.778Z,18.40
2019-03-18T10:00:16.194Z,18.20
2019-03-18T10:02:44.750Z,18.50
2019-03-18T10:05:13.239Z,18.00
2019-03-18T10:07:41.829Z,17.60
2019-03-18T10:10:12.384Z,17.40
2019-03-18T10:12:40.893Z,17.90
2019-03-18T10:15:14.771Z,18.60
2019-03-18T10:17:43.256Z,19.10
2019-03-18T10:20:11.816Z,19.00
2019-03-18T10:22:41.252Z,18.30
2019-03-18T10:25:09.829Z,18.00
2019-03-18T10:27:38.319Z,17.60
2019-03-18T10:30:12.160Z,17.00
2019-03-18T10:32:40.719Z,16.90
2019-03-18T10:35:09.641Z,17.20
2019-03-18T10:37:38.229Z,17.60
2019-03-18T10:40:16.254Z,17.70
2019-03-18T10:42:47.498Z,17.80
2019-03-18T10:45:15.999Z,18.10
2019-03-18T10:47:44.471Z,18.20
2019-03-18T10:50:16.910Z,17.90
2019-03-18T10:52:45.320Z,17.90
2019-03-18T10:55:13.877Z,17.80
2019-03-18T10:57:42.473Z,17.50
2019-03-18T11:00:15.962Z,17.90
2019-03-18T11:02:45.306Z,17.70
2019-03-18T11:05:14.843Z,17.60
2019-03-18T11:07:43.497Z,18.30
2019-03-18T11:10:14.137Z,18.60
2019-03-18T11:12:42.796Z,18.40
2019-03-18T11:15:14.466Z,18.00
2019-03-18T11:17:42.949Z,18.10
2019-03-18T11:20:13.244Z,18.60
2019-03-18T11:22:41.666Z,18.80
2019-03-18T11:25:11.714Z,18.90
2019-03-18T11:27:40.329Z,18.60
2019-03-18T11:30:14.145Z,18.70
2019-03-18T11:32:42.637Z,19.00
2019-03-18T11:35:11.177Z,20.30
2019-03-18T11:37:39.811Z,21.20
2019-03-18T11:40:11.633Z,21.70
2019-03-18T11:42:40.295Z,21.20
2019-03-18T11:45:12.865Z,20.60
2019-03-18T11:47:41.415Z,19.70
2019-03-18T11:50:12.193Z,19.60
2019-03-18T11:52:40.674Z,19.80
2019-03-18T11:55:17.399Z,19.10
2019-03-18T11:57:46.022Z,18.50
2019-03-18T12:00:17.046Z,18.40
2019-03-18T12:02:45.582Z,19.00
2019-03-18T12:05:24.641Z,19.70
2019-03-18T12:07:53.172Z,18.30
2019-03-18T12:10:21.754Z,18.60
2019-03-18T12:12:50.307Z,18.80
2019-03-18T12:15:21.667Z,18.60
2019-03-18T12:17:50.426Z,18.20
2019-03-18T12:20:24.807Z,19.00
2019-03-18T12:22:49.578Z,19.10
2019-03-18T12:25:18.671Z,19.60
2019-03-18T12:27:47.330Z,18.90
2019-03-18T12:30:26.608Z,19.00
2019-03-18T12:32:55.009Z,18.90
2019-03-18T12:35:23.662Z,19.60
2019-03-18T12:37:52.415Z,19.90
2019-03-18T12:40:20.897Z,19.90
2019-03-18T12:42:49.426Z,19.50
2019-03-18T12:45:19.271Z,19.60
2019-03-18T12:47:47.988Z,19.50
2019-03-18T12:50:17.904Z,19.20
2019-03-18T12:52:46.913Z,19.30
2019-03-18T12:55:15.471Z,20.30
2019-03-18T12:57:43.950Z,19.90
2019-03-18T13:00:26.529Z,19.20
2019-03-18T13:02:55.015Z,18.40
2019-03-18T13:05:23.565Z,18.00
2019-03-18T13:07:52.080Z,18.60
2019-03-18T13:10:21.912Z,19.10
2019-03-18T13:12:50.599Z,19.40
2019-03-18T13:15:20.642Z,19.30
2019-03-18T13:17:49.275Z,19.40
2019-03-18T13:20:19.862Z,19.40
2019-03-18T13:22:48.808Z,19.30
2019-03-18T13:25:18.302Z,18.50
2019-03-18T13:27:47.844Z,18.30
2019-03-18T13:30:20.374Z,17.90
2019-03-18T13:32:49.138Z,17.90
2019-03-18T13:35:18.029Z,18.50
2019-03-18T13:37:46.626Z,18.70
2019-03-18T13:40:15.695Z,18.90
2019-03-18T13:42:44.168Z,19.00
2019-03-18T13:45:20.784Z,19.70
2019-03-18T13:47:49.278Z,19.20
2019-03-18T13:50:21.467Z,19.90
2019-03-18T13:52:50.129Z,19.80
2019-03-18T13:55:18.757Z,19.60
2019-03-18T13:57:47.254Z,19.60
2019-03-18T14:00:17.690Z,19.50
2019-03-18T14:02:46.429Z,19.90
2019-03-18T14:05:15.166Z,19.70
2019-03-18T14:07:43.768Z,19.20
2019-03-18T14:10:14.365Z,18.80
2019-03-18T14:12:42.854Z,18.70
2019-03-18T14:15:14.015Z,18.70
2019-03-18T14:17:42.490Z,18.50
2019-03-18T14:20:13.818Z,18.20
2019-03-18T14:22:43.681Z,18.00
2019-03-18T14:25:12.730Z,18.30
2019-03-18T14:27:41.344Z,18.70
2019-03-18T14:30:22.282Z,19.20
2019-03-18T14:32:50.777Z,19.10
2019-03-18T14:35:21.463Z,18.90
2019-03-18T14:37:49.495Z,18.40
2019-03-18T14:40:22.080Z,18.90
2019-03-18T14:42:50.585Z,18.90
2019-03-18T14:45:25.134Z,19.10
2019-03-18T14:48:14.610Z,18.90
2019-03-18T14:50:43.419Z,19.10
2019-03-18T14:53:11.975Z,19.00
2019-03-18T14:55:40.486Z,19.00
2019-03-18T14:58:09.011Z,19.60
2019-03-18T15:00:37.865Z,20.20
2019-03-18T15:03:06.395Z,19.90
2019-03-18T15:05:37.027Z,19.80
2019-03-18T15:08:05.169Z,20.00
2019-03-18T15:10:33.657Z,20.10
2019-03-18T15:13:02.252Z,19.90
2019-03-18T15:15:30.781Z,20.00
2019-03-18T15:17:59.338Z,20.40
2019-03-18T15:20:28.664Z,19.90
2019-03-18T15:22:57.235Z,19.60
2019-03-18T15:25:30.571Z,20.10
2019-03-18T15:27:59.249Z,20.30
2019-03-18T15:30:31.193Z,20.60
2019-03-18T15:33:00.208Z,20.50
2019-03-18T15:35:28.808Z,20.40
2019-03-18T15:37:57.371Z,19.80
2019-03-18T15:40:27.867Z,19.40
2019-03-18T15:42:56.543Z,20.00
2019-03-18T15:45:25.023Z,19.80
2019-03-18T15:47:53.755Z,19.90
2019-03-18T15:50:26.186Z,20.00
2019-03-18T15:52:54.718Z,20.80
2019-03-18T15:55:24.356Z,21.20
2019-03-18T15:57:53.924Z,20.10
2019-03-18T16:05:22.223Z,19.70
2019-03-18T16:10:20.075Z,20.00
2019-03-18T16:12:48.770Z,19.00
2019-03-18T16:15:17.942Z,19.00
2019-03-18T16:17:46.587Z,19.20
2019-03-18T16:20:19.034Z,19.50
2019-03-18T16:22:47.592Z,19.20
2019-03-18T16:25:16.176Z,19.20
2019-03-18T16:27:44.820Z,19.30
2019-03-18T16:30:18.694Z,20.00
2019-03-18T16:32:47.323Z,19.80
2019-03-18T16:35:16.754Z,19.60
2019-03-18T16:37:45.327Z,20.30
2019-03-18T16:40:21.317Z,20.20
2019-03-18T16:42:49.959Z,20.20
2019-03-18T16:45:20.282Z,20.10
2019-03-18T16:47:48.996Z,19.50
2019-03-18T16:50:31.143Z,19.90
2019-03-18T16:52:59.768Z,19.70
2019-03-18T16:55:28.485Z,19.50
2019-03-18T16:57:57.156Z,19.70
2019-03-18T17:00:28.105Z,19.90
2019-03-18T17:02:56.738Z,19.60
2019-03-18T17:05:27.311Z,19.80
2019-03-18T17:07:55.636Z,20.00
2019-03-18T17:10:24.250Z,20.20
2019-03-18T17:12:52.844Z,20.30
2019-03-18T17:15:22.146Z,20.20
2019-03-18T17:17:50.857Z,20.20
2019-03-18T17:20:19.441Z,20.40
2019-03-18T17:22:50.003Z,20.10
2019-03-18T17:25:25.902Z,20.40
2019-03-18T17:27:54.612Z,20.50
2019-03-18T17:30:23.246Z,19.90
2019-03-18T17:32:51.790Z,19.60
2019-03-18T17:35:20.447Z,19.90
2019-03-18T17:37:48.913Z,20.80
2019-03-18T17:40:22.273Z,20.80
2019-03-18T17:42:50.991Z,20.10
2019-03-18T17:45:19.553Z,19.50
2019-03-18T17:47:48.243Z,17.40
2019-03-18T17:50:22.444Z,17.60
2019-03-18T17:53:01.493Z,17.40
2019-03-18T17:55:21.451Z,16.50
2019-03-18T17:57:50.045Z,16.50
2019-03-18T18:00:37.012Z,16.80
2019-03-18T18:03:05.698Z,17.40
2019-03-18T18:05:34.207Z,19.00
2019-03-18T18:08:02.709Z,19.80
2019-03-18T18:10:31.434Z,20.20
2019-03-18T18:13:00.231Z,21.20
2019-03-18T18:15:29.029Z,21.80
2019-03-18T18:17:57.699Z,21.60
2019-03-18T18:20:26.329Z,21.70
2019-03-18T18:22:54.905Z,22.00
2019-03-18T18:25:24.198Z,21.80
2019-03-18T18:27:52.883Z,22.20
2019-03-18T18:30:21.430Z,22.20
2019-03-18T18:32:50.043Z,22.70
2019-03-18T18:35:18.693Z,22.60
2019-03-18T18:37:47.629Z,23.70
2019-03-18T18:40:26.566Z,24.10
2019-03-18T18:42:55.056Z,24.20
2019-03-18T18:45:24.020Z,24.50
2019-03-18T18:47:52.625Z,25.10
2019-03-18T18:50:21.243Z,25.50
2019-03-18T18:52:49.967Z,25.60
2019-03-18T18:55:18.482Z,25.60
2019-03-18T18:57:46.981Z,25.60
2019-03-18T19:00:19.291Z,25.60
2019-03-18T19:02:47.896Z,25.80
2019-03-18T19:05:19.542Z,25.30
2019-03-18T19:07:48.126Z,25.00
2019-03-18T19:10:17.703Z,25.00
2019-03-18T19:12:46.340Z,25.50
2019-03-18T19:15:18.091Z,25.50
2019-03-18T19:17:47.187Z,25.60
2019-03-18T19:20:15.807Z,25.60
2019-03-18T19:22:44.537Z,24.90
2019-03-18T19:25:16.713Z,25.20
2019-03-18T19:30:16.415Z,22.50
2019-03-18T19:35:13.315Z,22.00
2019-03-18T19:37:42.776Z,21.40
2019-03-18T19:40:16.479Z,21.20
2019-03-18T19:45:14.196Z,19.70
2019-03-18T19:47:42.860Z,19.40
2019-03-18T19:50:14.089Z,18.50
2019-03-18T19:55:12.448Z,18.00
2019-03-18T20:00:19.618Z,18.70
2019-03-18T20:02:48.283Z,18.50
2019-03-18T20:05:20.291Z,18.20
2019-03-18T20:07:49.188Z,18.30
2019-03-18T20:10:21.730Z,19.50
2019-03-18T20:12:50.415Z,18.80
2019-03-18T20:15:19.690Z,18.40
2019-03-18T20:17:48.389Z,17.70
2019-03-18T20:22:47.935Z,19.60
2019-03-18T20:30:19.659Z,18.60
2019-03-18T20:32:50.122Z,18.40
2019-03-18T20:37:51.912Z,18.50
2019-03-18T20:40:20.297Z,18.40
2019-03-18T20:42:49.329Z,18.70
2019-03-18T20:47:51.362Z,17.60
2019-03-18T20:50:21.839Z,17.80
2019-03-18T20:52:50.589Z,17.10
2019-03-18T20:55:19.245Z,16.70
2019-03-18T20:57:48.689Z,16.50
2019-03-18T21:00:25.809Z,17.30
2019-03-18T21:05:25.149Z,18.70
2019-03-18T21:17:50.045Z,19.10
2019-03-18T21:20:23.108Z,19.20
2019-03-18T21:22:53.392Z,18.30
2019-03-18T21:25:22.069Z,16.80
2019-03-18T21:27:50.940Z,16.50
2019-03-18T21:30:21.984Z,17.30
2019-03-18T21:32:50.714Z,17.50
2019-03-18T21:35:19.375Z,17.40
2019-03-18T21:42:49.105Z,18.20
2019-03-18T21:45:24.688Z,19.00
2019-03-18T21:47:53.217Z,18.90
2019-03-18T21:50:21.775Z,19.80
2019-03-18T21:52:50.441Z,19.40
2019-03-18T21:55:40.732Z,19.40
2019-03-18T21:58:09.450Z,19.60
2019-03-18T22:00:37.989Z,20.30
2019-03-18T22:03:06.579Z,19.40
2019-03-18T22:05:35.243Z,19.40
2019-03-18T22:08:03.862Z,19.00
2019-03-18T22:10:32.540Z,18.90
2019-03-18T22:13:01.123Z,20.10
2019-03-18T22:15:29.625Z,20.70
2019-03-18T22:17:58.267Z,20.40
2019-03-18T22:20:26.759Z,20.60
2019-03-18T22:22:55.384Z,19.70
2019-03-18T22:25:23.910Z,19.60
2019-03-18T22:27:52.615Z,18.90
2019-03-18T22:30:21.327Z,19.20
2019-03-18T22:32:49.846Z,19.00
2019-03-18T22:35:18.868Z,18.90
2019-03-18T22:37:47.357Z,19.10
2019-03-18T22:40:17.747Z,18.90
2019-03-18T22:42:46.275Z,18.80
2019-03-18T22:45:15.739Z,18.50
2019-03-18T22:47:44.258Z,18.30
2019-03-18T22:50:14.874Z,18.30
2019-03-18T22:52:43.364Z,18.60
2019-03-18T22:55:13.884Z,18.30
2019-03-18T22:57:42.374Z,18.60
2019-03-18T23:00:21.453Z,18.20
2019-03-18T23:02:50.122Z,18.50
2019-03-18T23:05:18.665Z,17.90
2019-03-18T23:07:47.279Z,17.90
2019-03-18T23:10:16.360Z,17.80
2019-03-18T23:12:44.998Z,18.00
2019-03-18T23:15:13.669Z,19.70
2019-03-18T23:17:42.231Z,20.20
2019-03-18T23:20:10.787Z,19.70
2019-03-18T23:22:39.377Z,18.60
2019-03-18T23:25:08.335Z,17.90
2019-03-18T23:27:36.995Z,18.20
2019-03-18T23:30:11.022Z,18.00
2019-03-18T23:32:39.568Z,18.20
2019-03-18T23:35:09.747Z,19.80
2019-03-18T23:37:38.203Z,19.70
2019-03-18T23:40:13.962Z,19.50
2019-03-18T23:42:42.559Z,19.80
2019-03-18T23:45:11.412Z,19.20
2019-03-18T23:47:39.911Z,18.50
2019-03-18T23:50:16.009Z,17.90
2019-03-18T23:52:44.483Z,18.10
2019-03-18T23:55:19.522Z,18.20
2019-03-18T23:57:43.256Z,17.80
